sensor_id;sensor_type;location;lat;lon;timestamp;pressure;altitude;pressure_sealevel;temperature
44429;BMP180;30134;47.866;-4.222;2023-08-12T00:01:57;101526.00;;;25.40
44429;BMP180;30134;47.866;-4.222;2023-08-12T00:04:23;101526.00;;;25.50
44429;BMP180;30134;47.866;-4.222;2023-08-12T00:06:49;101529.00;;;25.40
44429;BMP180;30134;47.866;-4.222;2023-08-12T00:09:16;101526.00;;;25.50
44429;BMP180;30134;47.866;-4.222;2023-08-12T00:11:42;101529.00;;;25.40
44429;BMP180;30134;47.866;-4.222;2023-08-12T00:14:08;101523.00;;;25.40
44429;BMP180;30134;47.866;-4.222;2023-08-12T00:16:35;101520.00;;;25.40
44429;BMP180;30134;47.866;-4.222;2023-08-12T00:19:02;101514.00;;;25.40
44429;BMP180;30134;47.866;-4.222;2023-08-12T00:21:28;101510.00;;;25.40
44429;BMP180;30134;47.866;-4.222;2023-08-12T00:23:54;101502.00;;;25.50
44429;BMP180;30134;47.866;-4.222;2023-08-12T00:26:21;101492.00;;;25.30
44429;BMP180;30134;47.866;-4.222;2023-08-12T00:28:49;101497.00;;;25.40
44429;BMP180;30134;47.866;-4.222;2023-08-12T00:31:16;101493.00;;;25.50
44429;BMP180;30134;47.866;-4.222;2023-08-12T00:33:42;101492.00;;;25.40
44429;BMP180;30134;47.866;-4.222;2023-08-12T00:36:09;101496.00;;;25.50
44429;BMP180;30134;47.866;-4.222;2023-08-12T00:38:35;101496.00;;;25.60
44429;BMP180;30134;47.866;-4.222;2023-08-12T00:41:02;101496.00;;;25.50
44429;BMP180;30134;47.866;-4.222;2023-08-12T00:43:29;101498.00;;;25.40
44429;BMP180;30134;47.866;-4.222;2023-08-12T00:45:55;101496.00;;;25.30
44429;BMP180;30134;47.866;-4.222;2023-08-12T00:48:22;101498.00;;;25.40
44429;BMP180;30134;47.866;-4.222;2023-08-12T00:50:49;101494.00;;;25.40
44429;BMP180;30134;47.866;-4.222;2023-08-12T00:53:16;101496.00;;;25.30
44429;BMP180;30134;47.866;-4.222;2023-08-12T00:55:43;101494.00;;;25.50
44429;BMP180;30134;47.866;-4.222;2023-08-12T00:58:09;101494.00;;;25.40
44429;BMP180;30134;47.866;-4.222;2023-08-12T01:00:36;101488.00;;;25.40
44429;BMP180;30134;47.866;-4.222;2023-08-12T01:03:03;101494.00;;;25.40
44429;BMP180;30134;47.866;-4.222;2023-08-12T01:05:30;101488.00;;;25.40
44429;BMP180;30134;47.866;-4.222;2023-08-12T01:07:57;101483.00;;;25.40
44429;BMP180;30134;47.866;-4.222;2023-08-12T01:10:26;101483.00;;;25.50
44429;BMP180;30134;47.866;-4.222;2023-08-12T01:12:59;101482.00;;;25.50
44429;BMP180;30134;47.866;-4.222;2023-08-12T01:15:29;101480.00;;;25.40
44429;BMP180;30134;47.866;-4.222;2023-08-12T01:17:59;101483.00;;;25.50
44429;BMP180;30134;47.866;-4.222;2023-08-12T01:20:26;101476.00;;;25.40
44429;BMP180;30134;47.866;-4.222;2023-08-12T01:23:10;101474.00;;;25.40
44429;BMP180;30134;47.866;-4.222;2023-08-12T01:25:37;101469.00;;;25.50
44429;BMP180;30134;47.866;-4.222;2023-08-12T01:28:04;101473.00;;;25.40
44429;BMP180;30134;47.866;-4.222;2023-08-12T01:30:30;101464.00;;;25.40
44429;BMP180;30134;47.866;-4.222;2023-08-12T01:35:36;101468.00;;;25.50
44429;BMP180;30134;47.866;-4.222;2023-08-12T01:38:06;101467.00;;;25.50
44429;BMP180;30134;47.866;-4.222;2023-08-12T01:40:35;101466.00;;;25.50
44429;BMP180;30134;47.866;-4.222;2023-08-12T01:43:03;101461.00;;;25.40
44429;BMP180;30134;47.866;-4.222;2023-08-12T01:45:33;101454.00;;;25.50
44429;BMP180;30134;47.866;-4.222;2023-08-12T01:48:00;101464.00;;;25.30
44429;BMP180;30134;47.866;-4.222;2023-08-12T01:50:27;101469.00;;;25.60
44429;BMP180;30134;47.866;-4.222;2023-08-12T01:52:53;101463.00;;;25.50
44429;BMP180;30134;47.866;-4.222;2023-08-12T01:55:19;101470.00;;;25.40
44429;BMP180;30134;47.866;-4.222;2023-08-12T01:57:46;101462.00;;;25.30
44429;BMP180;30134;47.866;-4.222;2023-08-12T02:00:12;101456.00;;;25.30
44429;BMP180;30134;47.866;-4.222;2023-08-12T02:02:39;101455.00;;;25.50
44429;BMP180;30134;47.866;-4.222;2023-08-12T02:05:05;101456.00;;;25.50
44429;BMP180;30134;47.866;-4.222;2023-08-12T02:07:32;101454.00;;;25.40
44429;BMP180;30134;47.866;-4.222;2023-08-12T02:09:58;101459.00;;;25.30
44429;BMP180;30134;47.866;-4.222;2023-08-12T02:12:25;101448.00;;;25.30
44429;BMP180;30134;47.866;-4.222;2023-08-12T02:14:51;101449.00;;;25.40
44429;BMP180;30134;47.866;-4.222;2023-08-12T02:17:17;101453.00;;;25.40
44429;BMP180;30134;47.866;-4.222;2023-08-12T02:19:44;101453.00;;;25.50
44429;BMP180;30134;47.866;-4.222;2023-08-12T02:22:10;101451.00;;;25.40
44429;BMP180;30134;47.866;-4.222;2023-08-12T02:24:37;101448.00;;;25.40
44429;BMP180;30134;47.866;-4.222;2023-08-12T02:27:04;101442.00;;;25.50
44429;BMP180;30134;47.866;-4.222;2023-08-12T02:29:30;101450.00;;;25.50
44429;BMP180;30134;47.866;-4.222;2023-08-12T02:31:57;101453.00;;;25.40
44429;BMP180;30134;47.866;-4.222;2023-08-12T02:34:26;101447.00;;;25.50
44429;BMP180;30134;47.866;-4.222;2023-08-12T02:36:52;101453.00;;;25.50
44429;BMP180;30134;47.866;-4.222;2023-08-12T02:39:18;101453.00;;;25.50
44429;BMP180;30134;47.866;-4.222;2023-08-12T02:41:45;101452.00;;;25.50
44429;BMP180;30134;47.866;-4.222;2023-08-12T02:44:11;101451.00;;;25.50
44429;BMP180;30134;47.866;-4.222;2023-08-12T02:46:37;101451.00;;;25.40
44429;BMP180;30134;47.866;-4.222;2023-08-12T02:49:04;101445.00;;;25.50
44429;BMP180;30134;47.866;-4.222;2023-08-12T02:51:30;101445.00;;;25.50
44429;BMP180;30134;47.866;-4.222;2023-08-12T02:53:57;101446.00;;;25.40
44429;BMP180;30134;47.866;-4.222;2023-08-12T02:56:23;101447.00;;;25.40
44429;BMP180;30134;47.866;-4.222;2023-08-12T02:58:49;101446.00;;;25.50
44429;BMP180;30134;47.866;-4.222;2023-08-12T03:01:16;101437.00;;;25.50
44429;BMP180;30134;47.866;-4.222;2023-08-12T03:03:42;101447.00;;;25.50
44429;BMP180;30134;47.866;-4.222;2023-08-12T03:06:09;101443.00;;;25.40
44429;BMP180;30134;47.866;-4.222;2023-08-12T03:08:36;101441.00;;;25.40
44429;BMP180;30134;47.866;-4.222;2023-08-12T03:11:03;101440.00;;;25.50
44429;BMP180;30134;47.866;-4.222;2023-08-12T03:13:32;101441.00;;;25.40
44429;BMP180;30134;47.866;-4.222;2023-08-12T03:15:58;101443.00;;;25.40
44429;BMP180;30134;47.866;-4.222;2023-08-12T03:18:25;101442.00;;;25.40
44429;BMP180;30134;47.866;-4.222;2023-08-12T03:20:51;101445.00;;;25.40
44429;BMP180;30134;47.866;-4.222;2023-08-12T03:23:18;101436.00;;;25.30
44429;BMP180;30134;47.866;-4.222;2023-08-12T03:25:46;101431.00;;;25.40
44429;BMP180;30134;47.866;-4.222;2023-08-12T03:28:13;101438.00;;;25.30
44429;BMP180;30134;47.866;-4.222;2023-08-12T03:30:39;101433.00;;;25.40
44429;BMP180;30134;47.866;-4.222;2023-08-12T03:33:05;101431.00;;;25.40
44429;BMP180;30134;47.866;-4.222;2023-08-12T03:35:32;101433.00;;;25.40
44429;BMP180;30134;47.866;-4.222;2023-08-12T03:37:58;101427.00;;;25.50
44429;BMP180;30134;47.866;-4.222;2023-08-12T03:40:25;101428.00;;;25.50
44429;BMP180;30134;47.866;-4.222;2023-08-12T03:42:51;101429.00;;;25.50
44429;BMP180;30134;47.866;-4.222;2023-08-12T03:45:17;101431.00;;;25.30
44429;BMP180;30134;47.866;-4.222;2023-08-12T03:47:44;101430.00;;;25.30
44429;BMP180;30134;47.866;-4.222;2023-08-12T03:50:10;101433.00;;;25.40
44429;BMP180;30134;47.866;-4.222;2023-08-12T03:52:36;101426.00;;;25.40
44429;BMP180;30134;47.866;-4.222;2023-08-12T03:55:03;101426.00;;;25.40
44429;BMP180;30134;47.866;-4.222;2023-08-12T03:57:30;101433.00;;;25.30
44429;BMP180;30134;47.866;-4.222;2023-08-12T03:59:57;101425.00;;;25.40
44429;BMP180;30134;47.866;-4.222;2023-08-12T04:02:23;101424.00;;;25.40
44429;BMP180;30134;47.866;-4.222;2023-08-12T04:04:50;101432.00;;;25.40
44429;BMP180;30134;47.866;-4.222;2023-08-12T04:07:16;101429.00;;;25.40
44429;BMP180;30134;47.866;-4.222;2023-08-12T04:09:43;101429.00;;;25.30
44429;BMP180;30134;47.866;-4.222;2023-08-12T04:12:09;101423.00;;;25.30
44429;BMP180;30134;47.866;-4.222;2023-08-12T04:14:35;101423.00;;;25.50
44429;BMP180;30134;47.866;-4.222;2023-08-12T04:17:02;101427.00;;;25.20
44429;BMP180;30134;47.866;-4.222;2023-08-12T04:19:28;101423.00;;;25.40
44429;BMP180;30134;47.866;-4.222;2023-08-12T04:21:54;101421.00;;;25.30
44429;BMP180;30134;47.866;-4.222;2023-08-12T04:24:21;101421.00;;;25.30
44429;BMP180;30134;47.866;-4.222;2023-08-12T04:26:47;101416.00;;;25.30
44429;BMP180;30134;47.866;-4.222;2023-08-12T04:29:13;101415.00;;;25.40
44429;BMP180;30134;47.866;-4.222;2023-08-12T04:31:41;101422.00;;;25.30
44429;BMP180;30134;47.866;-4.222;2023-08-12T04:34:07;101417.00;;;25.30
44429;BMP180;30134;47.866;-4.222;2023-08-12T04:36:34;101418.00;;;25.40
44429;BMP180;30134;47.866;-4.222;2023-08-12T04:39:00;101420.00;;;25.50
44429;BMP180;30134;47.866;-4.222;2023-08-12T04:41:27;101418.00;;;25.30
44429;BMP180;30134;47.866;-4.222;2023-08-12T04:43:54;101425.00;;;25.30
44429;BMP180;30134;47.866;-4.222;2023-08-12T04:46:20;101426.00;;;25.30
44429;BMP180;30134;47.866;-4.222;2023-08-12T04:48:46;101431.00;;;25.40
44429;BMP180;30134;47.866;-4.222;2023-08-12T04:51:16;101428.00;;;25.40
44429;BMP180;30134;47.866;-4.222;2023-08-12T04:53:42;101425.00;;;25.30
44429;BMP180;30134;47.866;-4.222;2023-08-12T04:56:08;101432.00;;;25.40
44429;BMP180;30134;47.866;-4.222;2023-08-12T04:58:35;101427.00;;;25.40
44429;BMP180;30134;47.866;-4.222;2023-08-12T05:01:01;101427.00;;;25.20
44429;BMP180;30134;47.866;-4.222;2023-08-12T05:03:29;101431.00;;;25.30
44429;BMP180;30134;47.866;-4.222;2023-08-12T05:05:55;101438.00;;;25.30
44429;BMP180;30134;47.866;-4.222;2023-08-12T05:08:22;101435.00;;;25.40
44429;BMP180;30134;47.866;-4.222;2023-08-12T05:10:49;101430.00;;;25.40
44429;BMP180;30134;47.866;-4.222;2023-08-12T05:13:16;101426.00;;;25.30
44429;BMP180;30134;47.866;-4.222;2023-08-12T05:15:46;101425.00;;;25.40
44429;BMP180;30134;47.866;-4.222;2023-08-12T05:18:13;101433.00;;;25.30
44429;BMP180;30134;47.866;-4.222;2023-08-12T05:20:43;101432.00;;;25.30
44429;BMP180;30134;47.866;-4.222;2023-08-12T05:23:10;101433.00;;;25.40
44429;BMP180;30134;47.866;-4.222;2023-08-12T05:25:36;101440.00;;;25.30
44429;BMP180;30134;47.866;-4.222;2023-08-12T05:28:07;101433.00;;;25.30
44429;BMP180;30134;47.866;-4.222;2023-08-12T05:30:34;101437.00;;;25.30
44429;BMP180;30134;47.866;-4.222;2023-08-12T05:33:01;101434.00;;;25.30
44429;BMP180;30134;47.866;-4.222;2023-08-12T05:35:28;101440.00;;;25.30
44429;BMP180;30134;47.866;-4.222;2023-08-12T05:37:58;101441.00;;;25.30
44429;BMP180;30134;47.866;-4.222;2023-08-12T05:40:25;101432.00;;;25.40
44429;BMP180;30134;47.866;-4.222;2023-08-12T05:42:51;101433.00;;;25.30
44429;BMP180;30134;47.866;-4.222;2023-08-12T05:45:18;101430.00;;;25.20
44429;BMP180;30134;47.866;-4.222;2023-08-12T05:47:44;101438.00;;;25.30
44429;BMP180;30134;47.866;-4.222;2023-08-12T05:50:10;101429.00;;;25.30
44429;BMP180;30134;47.866;-4.222;2023-08-12T05:52:37;101433.00;;;25.20
44429;BMP180;30134;47.866;-4.222;2023-08-12T05:55:03;101434.00;;;25.30
44429;BMP180;30134;47.866;-4.222;2023-08-12T05:57:30;101435.00;;;25.30
44429;BMP180;30134;47.866;-4.222;2023-08-12T05:59:56;101428.00;;;25.30
44429;BMP180;30134;47.866;-4.222;2023-08-12T06:02:23;101430.00;;;25.40
44429;BMP180;30134;47.866;-4.222;2023-08-12T06:04:50;101440.00;;;25.30
44429;BMP180;30134;47.866;-4.222;2023-08-12T06:07:16;101430.00;;;25.30
44429;BMP180;30134;47.866;-4.222;2023-08-12T06:09:42;101430.00;;;25.20
44429;BMP180;30134;47.866;-4.222;2023-08-12T06:12:09;101430.00;;;25.20
44429;BMP180;30134;47.866;-4.222;2023-08-12T06:14:38;101433.00;;;25.20
44429;BMP180;30134;47.866;-4.222;2023-08-12T06:17:05;101431.00;;;25.30
44429;BMP180;30134;47.866;-4.222;2023-08-12T06:19:32;101437.00;;;25.30
44429;BMP180;30134;47.866;-4.222;2023-08-12T06:21:58;101437.00;;;25.10
44429;BMP180;30134;47.866;-4.222;2023-08-12T06:24:25;101440.00;;;25.20
44429;BMP180;30134;47.866;-4.222;2023-08-12T06:26:54;101437.00;;;25.30
44429;BMP180;30134;47.866;-4.222;2023-08-12T06:29:21;101441.00;;;25.20
44429;BMP180;30134;47.866;-4.222;2023-08-12T06:31:47;101446.00;;;25.20
44429;BMP180;30134;47.866;-4.222;2023-08-12T06:34:16;101445.00;;;25.30
44429;BMP180;30134;47.866;-4.222;2023-08-12T06:36:42;101445.00;;;25.20
44429;BMP180;30134;47.866;-4.222;2023-08-12T06:39:11;101446.00;;;25.20
44429;BMP180;30134;47.866;-4.222;2023-08-12T06:41:38;101451.00;;;25.30
44429;BMP180;30134;47.866;-4.222;2023-08-12T06:44:10;101446.00;;;25.40
44429;BMP180;30134;47.866;-4.222;2023-08-12T06:46:37;101451.00;;;25.20
44429;BMP180;30134;47.866;-4.222;2023-08-12T06:49:06;101447.00;;;25.20
44429;BMP180;30134;47.866;-4.222;2023-08-12T06:51:33;101456.00;;;25.30
44429;BMP180;30134;47.866;-4.222;2023-08-12T06:53:59;101455.00;;;25.30
44429;BMP180;30134;47.866;-4.222;2023-08-12T06:56:26;101453.00;;;25.30
44429;BMP180;30134;47.866;-4.222;2023-08-12T06:58:52;101454.00;;;25.30
44429;BMP180;30134;47.866;-4.222;2023-08-12T07:01:18;101456.00;;;25.30
44429;BMP180;30134;47.866;-4.222;2023-08-12T07:03:44;101453.00;;;25.30
44429;BMP180;30134;47.866;-4.222;2023-08-12T07:06:11;101452.00;;;25.30
44429;BMP180;30134;47.866;-4.222;2023-08-12T07:08:37;101461.00;;;25.40
44429;BMP180;30134;47.866;-4.222;2023-08-12T07:11:03;101461.00;;;25.30
44429;BMP180;30134;47.866;-4.222;2023-08-12T07:13:30;101459.00;;;25.30
44429;BMP180;30134;47.866;-4.222;2023-08-12T07:15:57;101458.00;;;25.30
44429;BMP180;30134;47.866;-4.222;2023-08-12T07:18:23;101466.00;;;25.30
44429;BMP180;30134;47.866;-4.222;2023-08-12T07:20:50;101461.00;;;25.30
44429;BMP180;30134;47.866;-4.222;2023-08-12T07:23:16;101469.00;;;25.30
44429;BMP180;30134;47.866;-4.222;2023-08-12T07:25:42;101464.00;;;25.20
44429;BMP180;30134;47.866;-4.222;2023-08-12T07:28:09;101473.00;;;25.30
44429;BMP180;30134;47.866;-4.222;2023-08-12T07:30:35;101465.00;;;25.30
44429;BMP180;30134;47.866;-4.222;2023-08-12T07:33:02;101467.00;;;25.40
44429;BMP180;30134;47.866;-4.222;2023-08-12T07:35:28;101469.00;;;25.50
44429;BMP180;30134;47.866;-4.222;2023-08-12T07:37:55;101471.00;;;25.40
44429;BMP180;30134;47.866;-4.222;2023-08-12T07:40:21;101467.00;;;25.50
44429;BMP180;30134;47.866;-4.222;2023-08-12T07:42:47;101475.00;;;25.40
44429;BMP180;30134;47.866;-4.222;2023-08-12T07:45:14;101487.00;;;25.30
44429;BMP180;30134;47.866;-4.222;2023-08-12T07:47:40;101478.00;;;25.50
44429;BMP180;30134;47.866;-4.222;2023-08-12T07:50:07;101480.00;;;25.30
44429;BMP180;30134;47.866;-4.222;2023-08-12T07:52:34;101479.00;;;25.30
44429;BMP180;30134;47.866;-4.222;2023-08-12T07:55:00;101486.00;;;25.40
44429;BMP180;30134;47.866;-4.222;2023-08-12T07:57:27;101478.00;;;25.60
44429;BMP180;30134;47.866;-4.222;2023-08-12T07:59:53;101478.00;;;25.40
44429;BMP180;30134;47.866;-4.222;2023-08-12T08:02:19;101478.00;;;25.40
44429;BMP180;30134;47.866;-4.222;2023-08-12T08:04:46;101476.00;;;25.50
44429;BMP180;30134;47.866;-4.222;2023-08-12T08:07:15;101475.00;;;25.50
44429;BMP180;30134;47.866;-4.222;2023-08-12T08:09:42;101483.00;;;25.40
44429;BMP180;30134;47.866;-4.222;2023-08-12T08:12:10;101476.00;;;25.50
44429;BMP180;30134;47.866;-4.222;2023-08-12T08:14:36;101475.00;;;25.50
44429;BMP180;30134;47.866;-4.222;2023-08-12T08:17:03;101467.00;;;25.40
44429;BMP180;30134;47.866;-4.222;2023-08-12T08:19:30;101473.00;;;25.50
44429;BMP180;30134;47.866;-4.222;2023-08-12T08:21:57;101480.00;;;25.50
44429;BMP180;30134;47.866;-4.222;2023-08-12T08:24:24;101474.00;;;25.50
44429;BMP180;30134;47.866;-4.222;2023-08-12T08:26:50;101481.00;;;25.60
44429;BMP180;30134;47.866;-4.222;2023-08-12T08:29:17;101476.00;;;25.40
44429;BMP180;30134;47.866;-4.222;2023-08-12T08:31:43;101480.00;;;25.40
44429;BMP180;30134;47.866;-4.222;2023-08-12T08:34:09;101488.00;;;25.60
44429;BMP180;30134;47.866;-4.222;2023-08-12T08:36:36;101482.00;;;25.60
44429;BMP180;30134;47.866;-4.222;2023-08-12T08:39:02;101486.00;;;25.50
44429;BMP180;30134;47.866;-4.222;2023-08-12T08:41:31;101477.00;;;25.50
44429;BMP180;30134;47.866;-4.222;2023-08-12T08:44:02;101485.00;;;25.50
44429;BMP180;30134;47.866;-4.222;2023-08-12T08:46:34;101479.00;;;25.60
44429;BMP180;30134;47.866;-4.222;2023-08-12T08:49:01;101482.00;;;25.60
44429;BMP180;30134;47.866;-4.222;2023-08-12T08:51:30;101483.00;;;25.60
44429;BMP180;30134;47.866;-4.222;2023-08-12T08:53:57;101479.00;;;25.60
44429;BMP180;30134;47.866;-4.222;2023-08-12T08:56:24;101484.00;;;25.70
44429;BMP180;30134;47.866;-4.222;2023-08-12T08:58:50;101482.00;;;25.70
44429;BMP180;30134;47.866;-4.222;2023-08-12T09:01:20;101480.00;;;25.60
44429;BMP180;30134;47.866;-4.222;2023-08-12T09:03:49;101490.00;;;25.70
44429;BMP180;30134;47.866;-4.222;2023-08-12T09:06:17;101492.00;;;25.60
44429;BMP180;30134;47.866;-4.222;2023-08-12T09:08:46;101497.00;;;25.70
44429;BMP180;30134;47.866;-4.222;2023-08-12T09:11:15;101503.00;;;25.60
44429;BMP180;30134;47.866;-4.222;2023-08-12T09:13:41;101496.00;;;25.50
44429;BMP180;30134;47.866;-4.222;2023-08-12T09:16:08;101500.00;;;25.60
44429;BMP180;30134;47.866;-4.222;2023-08-12T09:18:36;101509.00;;;25.60
44429;BMP180;30134;47.866;-4.222;2023-08-12T09:21:09;101507.00;;;25.60
44429;BMP180;30134;47.866;-4.222;2023-08-12T09:23:38;101506.00;;;25.70
44429;BMP180;30134;47.866;-4.222;2023-08-12T09:26:17;101513.00;;;25.70
44429;BMP180;30134;47.866;-4.222;2023-08-12T09:28:44;101516.00;;;25.60
44429;BMP180;30134;47.866;-4.222;2023-08-12T09:31:27;101516.00;;;25.70
44429;BMP180;30134;47.866;-4.222;2023-08-12T09:34:12;101514.00;;;25.60
44429;BMP180;30134;47.866;-4.222;2023-08-12T09:36:39;101515.00;;;25.70
44429;BMP180;30134;47.866;-4.222;2023-08-12T09:39:07;101522.00;;;25.60
44429;BMP180;30134;47.866;-4.222;2023-08-12T09:41:35;101520.00;;;25.70
44429;BMP180;30134;47.866;-4.222;2023-08-12T09:44:04;101520.00;;;25.70
44429;BMP180;30134;47.866;-4.222;2023-08-12T09:46:33;101525.00;;;25.70
44429;BMP180;30134;47.866;-4.222;2023-08-12T09:49:02;101532.00;;;25.70
44429;BMP180;30134;47.866;-4.222;2023-08-12T09:51:37;101532.00;;;25.70
44429;BMP180;30134;47.866;-4.222;2023-08-12T09:54:05;101527.00;;;25.60
44429;BMP180;30134;47.866;-4.222;2023-08-12T09:56:35;101529.00;;;25.60
44429;BMP180;30134;47.866;-4.222;2023-08-12T09:59:07;101532.00;;;25.60
44429;BMP180;30134;47.866;-4.222;2023-08-12T10:01:34;101526.00;;;25.60
44429;BMP180;30134;47.866;-4.222;2023-08-12T10:04:06;101537.00;;;25.70
44429;BMP180;30134;47.866;-4.222;2023-08-12T10:06:38;101528.00;;;25.60
44429;BMP180;30134;47.866;-4.222;2023-08-12T10:09:05;101531.00;;;25.60
44429;BMP180;30134;47.866;-4.222;2023-08-12T10:11:34;101534.00;;;25.60
44429;BMP180;30134;47.866;-4.222;2023-08-12T10:14:02;101534.00;;;25.80
44429;BMP180;30134;47.866;-4.222;2023-08-12T10:16:30;101535.00;;;25.60
44429;BMP180;30134;47.866;-4.222;2023-08-12T10:18:57;101534.00;;;25.70
44429;BMP180;30134;47.866;-4.222;2023-08-12T10:21:25;101539.00;;;25.60
44429;BMP180;30134;47.866;-4.222;2023-08-12T10:23:51;101542.00;;;25.60
44429;BMP180;30134;47.866;-4.222;2023-08-12T10:26:19;101540.00;;;25.60
44429;BMP180;30134;47.866;-4.222;2023-08-12T10:28:47;101535.00;;;25.50
44429;BMP180;30134;47.866;-4.222;2023-08-12T10:31:14;101544.00;;;25.60
44429;BMP180;30134;47.866;-4.222;2023-08-12T10:33:41;101549.00;;;25.60
44429;BMP180;30134;47.866;-4.222;2023-08-12T10:36:08;101542.00;;;25.60
44429;BMP180;30134;47.866;-4.222;2023-08-12T10:38:35;101543.00;;;25.50
44429;BMP180;30134;47.866;-4.222;2023-08-12T10:41:21;101543.00;;;25.60
44429;BMP180;30134;47.866;-4.222;2023-08-12T10:44:05;101536.00;;;25.70
44429;BMP180;30134;47.866;-4.222;2023-08-12T10:46:38;101541.00;;;25.60
44429;BMP180;30134;47.866;-4.222;2023-08-12T10:49:09;101543.00;;;25.60
44429;BMP180;30134;47.866;-4.222;2023-08-12T10:51:50;101539.00;;;25.70
44429;BMP180;30134;47.866;-4.222;2023-08-12T10:54:29;101545.00;;;25.70
44429;BMP180;30134;47.866;-4.222;2023-08-12T10:59:53;101549.00;;;25.70
44429;BMP180;30134;47.866;-4.222;2023-08-12T11:02:31;101543.00;;;25.70
44429;BMP180;30134;47.866;-4.222;2023-08-12T11:07:41;101551.00;;;25.50
44429;BMP180;30134;47.866;-4.222;2023-08-12T11:12:40;101540.00;;;25.50
44429;BMP180;30134;47.866;-4.222;2023-08-12T11:15:07;101547.00;;;25.50
44429;BMP180;30134;47.866;-4.222;2023-08-12T11:17:41;101545.00;;;25.40
44429;BMP180;30134;47.866;-4.222;2023-08-12T11:20:12;101546.00;;;25.40
44429;BMP180;30134;47.866;-4.222;2023-08-12T11:22:43;101553.00;;;25.40
44429;BMP180;30134;47.866;-4.222;2023-08-12T11:25:14;101549.00;;;25.40
44429;BMP180;30134;47.866;-4.222;2023-08-12T11:27:44;101547.00;;;25.40
44429;BMP180;30134;47.866;-4.222;2023-08-12T11:30:12;101546.00;;;25.30
44429;BMP180;30134;47.866;-4.222;2023-08-12T11:32:48;101545.00;;;25.40
44429;BMP180;30134;47.866;-4.222;2023-08-12T11:35:16;101541.00;;;25.30
44429;BMP180;30134;47.866;-4.222;2023-08-12T11:37:45;101534.00;;;25.30
44429;BMP180;30134;47.866;-4.222;2023-08-12T11:40:15;101551.00;;;25.40
44429;BMP180;30134;47.866;-4.222;2023-08-12T11:42:43;101543.00;;;25.30
44429;BMP180;30134;47.866;-4.222;2023-08-12T11:45:11;101543.00;;;25.20
44429;BMP180;30134;47.866;-4.222;2023-08-12T11:47:40;101543.00;;;25.30
44429;BMP180;30134;47.866;-4.222;2023-08-12T11:50:11;101539.00;;;25.40
44429;BMP180;30134;47.866;-4.222;2023-08-12T11:52:38;101535.00;;;25.30
44429;BMP180;30134;47.866;-4.222;2023-08-12T11:55:05;101537.00;;;25.30
44429;BMP180;30134;47.866;-4.222;2023-08-12T11:57:33;101540.00;;;25.30
44429;BMP180;30134;47.866;-4.222;2023-08-12T12:00:02;101545.00;;;25.40
44429;BMP180;30134;47.866;-4.222;2023-08-12T12:02:31;101541.00;;;25.20
44429;BMP180;30134;47.866;-4.222;2023-08-12T12:04:57;101535.00;;;25.40
44429;BMP180;30134;47.866;-4.222;2023-08-12T12:07:26;101538.00;;;25.30
44429;BMP180;30134;47.866;-4.222;2023-08-12T12:09:54;101529.00;;;25.40
44429;BMP180;30134;47.866;-4.222;2023-08-12T12:12:24;101532.00;;;25.40
44429;BMP180;30134;47.866;-4.222;2023-08-12T12:14:55;101539.00;;;25.40
44429;BMP180;30134;47.866;-4.222;2023-08-12T12:17:24;101533.00;;;25.40
44429;BMP180;30134;47.866;-4.222;2023-08-12T12:19:58;101538.00;;;25.40
44429;BMP180;30134;47.866;-4.222;2023-08-12T12:22:32;101532.00;;;25.50
44429;BMP180;30134;47.866;-4.222;2023-08-12T12:25:00;101543.00;;;25.50
44429;BMP180;30134;47.866;-4.222;2023-08-12T12:27:30;101536.00;;;25.30
44429;BMP180;30134;47.866;-4.222;2023-08-12T12:29:57;101540.00;;;25.50
44429;BMP180;30134;47.866;-4.222;2023-08-12T12:32:23;101529.00;;;25.50
44429;BMP180;30134;47.866;-4.222;2023-08-12T12:34:50;101531.00;;;25.30
44429;BMP180;30134;47.866;-4.222;2023-08-12T12:37:17;101532.00;;;25.50
44429;BMP180;30134;47.866;-4.222;2023-08-12T12:39:43;101533.00;;;25.50
44429;BMP180;30134;47.866;-4.222;2023-08-12T12:42:10;101537.00;;;25.60
44429;BMP180;30134;47.866;-4.222;2023-08-12T12:44:43;101532.00;;;25.50
44429;BMP180;30134;47.866;-4.222;2023-08-12T12:47:10;101538.00;;;25.60
44429;BMP180;30134;47.866;-4.222;2023-08-12T12:49:39;101535.00;;;25.60
44429;BMP180;30134;47.866;-4.222;2023-08-12T12:52:05;101537.00;;;25.70
44429;BMP180;30134;47.866;-4.222;2023-08-12T12:54:31;101540.00;;;25.70
44429;BMP180;30134;47.866;-4.222;2023-08-12T12:56:58;101546.00;;;25.50
44429;BMP180;30134;47.866;-4.222;2023-08-12T12:59:24;101542.00;;;25.60
44429;BMP180;30134;47.866;-4.222;2023-08-12T13:01:51;101542.00;;;25.60
44429;BMP180;30134;47.866;-4.222;2023-08-12T13:04:17;101543.00;;;25.70
44429;BMP180;30134;47.866;-4.222;2023-08-12T13:06:44;101544.00;;;25.60
44429;BMP180;30134;47.866;-4.222;2023-08-12T13:09:10;101546.00;;;25.70
44429;BMP180;30134;47.866;-4.222;2023-08-12T13:11:40;101548.00;;;25.70
44429;BMP180;30134;47.866;-4.222;2023-08-12T13:14:11;101540.00;;;25.70
44429;BMP180;30134;47.866;-4.222;2023-08-12T13:16:38;101557.00;;;25.80
44429;BMP180;30134;47.866;-4.222;2023-08-12T13:19:04;101550.00;;;25.80
44429;BMP180;30134;47.866;-4.222;2023-08-12T13:21:30;101550.00;;;25.80
44429;BMP180;30134;47.866;-4.222;2023-08-12T13:24:01;101547.00;;;25.80
44429;BMP180;30134;47.866;-4.222;2023-08-12T13:26:29;101551.00;;;25.80
44429;BMP180;30134;47.866;-4.222;2023-08-12T13:28:56;101561.00;;;25.80
44429;BMP180;30134;47.866;-4.222;2023-08-12T13:31:22;101551.00;;;25.70
44429;BMP180;30134;47.866;-4.222;2023-08-12T13:33:49;101555.00;;;25.80
44429;BMP180;30134;47.866;-4.222;2023-08-12T13:36:16;101555.00;;;25.80
44429;BMP180;30134;47.866;-4.222;2023-08-12T13:38:42;101553.00;;;25.70
44429;BMP180;30134;47.866;-4.222;2023-08-12T13:41:09;101560.00;;;25.80
44429;BMP180;30134;47.866;-4.222;2023-08-12T13:43:35;101564.00;;;25.90
44429;BMP180;30134;47.866;-4.222;2023-08-12T13:46:01;101560.00;;;25.80
44429;BMP180;30134;47.866;-4.222;2023-08-12T13:48:28;101559.00;;;25.90
44429;BMP180;30134;47.866;-4.222;2023-08-12T13:50:56;101553.00;;;25.90
44429;BMP180;30134;47.866;-4.222;2023-08-12T13:53:23;101546.00;;;26.00
44429;BMP180;30134;47.866;-4.222;2023-08-12T13:55:50;101551.00;;;25.90
44429;BMP180;30134;47.866;-4.222;2023-08-12T13:58:17;101550.00;;;25.90